Flight Track Log - Related Links

Times and Time Zones

All times are in EDT time to prevent confusion due to time zone crossing. See the EJA727 flight status page for this flight to view local times or setup timezone preferences in your user account.

Time Position Orientation Groundspeed Altitude Reporting Facility
EDT Latitude Longitude Course Direction KTS MPH feet Rate Location/Type
Sat 11:10:48 AM 36.1000 -86.6833 180° South 180 207 1,200  Level Nashville TRACON
Sat 11:11:30 AM 36.0500 -86.6833 180° South 230 265 2,700 3,118 Climbing Nashville TRACON
Sat 11:12:30 AM 35.9833 -86.6667 169° South 267 307 6,500 3,609 Climbing Nashville TRACON
Sat 11:13:38 AM 35.9061 -86.6897 194° South 246 283 10,400 3,375 Climbing Memphis Center
Sat 11:14:38 AM 35.8297 -86.7086 191° South 271 312 13,700 3,150 Climbing Memphis Center
Sat 11:15:38 AM 35.7469 -86.7300 192° South 291 335 16,700 2,850 Climbing Memphis Center
Sat 11:16:38 AM 35.6558 -86.7519 191° South 302 348 19,400 2,086 Climbing Memphis Center
Sat 11:18:45 AM 35.4519 -86.7819 187° South 360 414 23,200 1,701 Climbing Atlanta Center
Sat 11:19:45 AM 35.3475 -86.7886 183° South 371 427 24,700 1,500 Climbing Atlanta Center
Sat 11:20:45 AM 35.2306 -86.7950 183° South 404 465 26,200 1,500 Climbing Atlanta Center
Sat 11:21:45 AM 35.1114 -86.8036 183° South 426 490 27,700 900 Climbing Atlanta Center
Sat 11:22:45 AM 34.9839 -86.8122 183° South 441 507 28,000 150 Climbing Atlanta Center
Sat 11:23:45 AM 34.8503 -86.8203 183° South 463 533 28,000  Level Atlanta Center
Sat 11:24:45 AM 34.7164 -86.8286 183° South 479 551 28,000  Level Atlanta Center
Sat 11:25:45 AM 34.5806 -86.8392 184° South 484 557 28,000  Level Atlanta Center
Sat 11:26:45 AM 34.4444 -86.8575 186° South 489 563 28,000  Level Atlanta Center
Sat 11:27:45 AM 34.3550 -86.9375 216° Southwest 454 522 28,000  Level Atlanta Center
Sat 11:28:45 AM 34.2767 -87.0656 234° Southwest 449 517 28,000  Level Atlanta Center
Sat 11:30:14 AM 34.1550 -87.2647 234° Southwest 461 531 28,000  Level Memphis Center
Sat 11:31:14 AM 34.0789 -87.3906 234° Southwest 461 531 28,000  Level Memphis Center
Sat 11:32:14 AM 34.0003 -87.5108 232° Southwest 466 536 28,000  Level Memphis Center
Sat 11:33:14 AM 33.9175 -87.6364 232° Southwest 466 536 28,000  Level Memphis Center
Sat 11:34:14 AM 33.8386 -87.7589 232° Southwest 471 542 28,000  Level Memphis Center
Sat 11:35:14 AM 33.7597 -87.8836 233° Southwest 476 548 28,000  Level Memphis Center
Sat 11:36:14 AM 33.6786 -88.0083 232° Southwest 476 548 28,000  Level Memphis Center
Sat 11:37:14 AM 33.5975 -88.1325 232° Southwest 476 548 28,000  Level Memphis Center
Sat 11:38:14 AM 33.5286 -88.2439 233° Southwest 476 548 28,000  Level Memphis Center
Sat 11:39:14 AM 33.4472 -88.3681 232° Southwest 476 548 28,000  Level Memphis Center
Sat 11:40:14 AM 33.3675 -88.4917 232° Southwest 471 542 28,000  Level Memphis Center
Sat 11:41:14 AM 33.2817 -88.6153 230° Southwest 471 542 28,000  Level Memphis Center
Sat 11:42:14 AM 33.2019 -88.7411 233° Southwest 471 542 28,000  Level Memphis Center
Sat 11:43:14 AM 33.1222 -88.8617 232° Southwest 471 542 28,000  Level Memphis Center
Sat 11:44:14 AM 33.0381 -88.9869 231° Southwest 471 542 28,000  Level Memphis Center
Sat 11:45:14 AM 32.9558 -89.1119 232° Southwest 471 542 28,000  Level Memphis Center
Sat 11:46:14 AM 32.8714 -89.2369 231° Southwest 477 549 28,000  Level Memphis Center
Sat 11:47:14 AM 32.7869 -89.3614 231° Southwest 482 555 28,000  Level Memphis Center
Sat 11:48:14 AM 32.7022 -89.4858 231° Southwest 482 555 28,000  Level Memphis Center
Sat 11:49:14 AM 32.6194 -89.6100 232° Southwest 482 555 28,000  Level Memphis Center
Sat 11:50:14 AM 32.5347 -89.7364 232° Southwest 487 560 28,000  Level Memphis Center
Sat 11:51:14 AM 32.4497 -89.8600 231° Southwest 487 560 28,000  Level Memphis Center
Sat 11:52:14 AM 32.3644 -89.9858 231° Southwest 493 567 28,000  Level Memphis Center
Sat 11:53:14 AM 32.2772 -90.1092 230° Southwest 498 573 28,000  Level Memphis Center
Sat 11:54:14 AM 32.1917 -90.2347 231° Southwest 498 573 28,000  Level Memphis Center
Sat 11:55:14 AM 32.1083 -90.3572 231° Southwest 493 567 28,000  Level Memphis Center
Sat 11:55:49 AM 32.0636 -90.4208 230° Southwest 489 563 28,000  Level Houston Center
Sat 11:56:51 AM 31.9619 -90.5697 231° Southwest 487 560 28,000  Level Houston Center
Sat 11:57:53 AM 31.8758 -90.6933 231° Southwest 489 563 28,000  Level Houston Center
Sat 11:58:55 AM 31.7889 -90.8175 231° Southwest 492 566 28,000  Level Houston Center
Sat 11:59:57 AM 31.7036 -90.9397 231° Southwest 488 562 28,000  Level Houston Center
Sat 12:00:59 PM 31.6175 -91.0644 231° Southwest 492 566 28,000  Level Houston Center
Sat 12:02:01 PM 31.5178 -91.2036 230° Southwest 492 566 28,000  Level Houston Center
Sat 12:03:03 PM 31.4297 -91.3272 230° Southwest 491 565 28,000  Level Houston Center
Sat 12:04:05 PM 31.3500 -91.4567 234° Southwest 487 560 28,000  Level Houston Center
Sat 12:05:07 PM 31.2789 -91.5914 238° Southwest 484 557 28,000  Level Houston Center
Sat 12:06:10 PM 31.2064 -91.7258 238° Southwest 487 560 28,000  Level Houston Center
Sat 12:07:12 PM 31.1192 -91.8875 238° Southwest 486 559 28,000  Level Houston Center
Sat 12:08:14 PM 31.0464 -92.0222 238° Southwest 486 559 28,000  Level Houston Center
Sat 12:09:16 PM 30.9742 -92.1581 238° Southwest 488 562 28,000 -97 Level Houston Center
Sat 12:10:18 PM 30.9017 -92.2922 238° Southwest 486 559 27,800 -1,016 Descending Houston Center
Sat 12:11:20 PM 30.8283 -92.4261 237° Southwest 486 559 25,900 -1,839 Descending Houston Center
Sat 12:12:22 PM 30.7556 -92.5578 237° Southwest 482 555 24,000 -1,839 Descending Houston Center
Sat 12:13:24 PM 30.6828 -92.6931 238° Southwest 479 551 22,100 -1,756 Descending Houston Center
Sat 12:14:25 PM 30.6144 -92.8158 237° Southwest 457 526 20,400 -1,707 Descending Houston Center
Sat 12:15:27 PM 30.5489 -92.9361 238° Southwest 444 511 18,600 -1,887 Descending Houston Center
Sat 12:16:29 PM 30.4703 -93.0778 237° Southwest 437 503 16,500 -1,886 Descending Houston Center
Sat 12:17:12 PM 30.4231 -93.1631 237° Southwest 429 494 15,300 -1,581 Descending Houston Center
Sat 12:19:35 PM 30.2825 -93.4153 237° Southwest 406 467 11,600 -1,463 Descending Houston Center
Sat 12:20:37 PM 30.2175 -93.5200 234° Southwest 388 447 10,300 -1,306 Descending Houston Center
Sat 12:21:39 PM 30.1539 -93.5981 227° Southwest 333 383 8,900 -1,548 Descending Houston Center
Sat 12:22:41 PM 30.0975 -93.6697 228° Southwest 312 359 7,100 -1,984 Descending Houston Center
Sat 12:23:43 PM 30.0367 -93.7453 227° Southwest 271 312 4,800 -2,049 Descending Houston Center
Sat 12:24:44 PM 29.9889 -93.8100 230° Southwest 268 308 2,900 -1,377 Descending Houston Center
Sat 12:25:45 PM 29.9386 -93.8747 228° Southwest 253 291 2,000 -672 Descending Houston Center
Sat 12:26:40 PM 29.9214 -93.9325 251° West 200 230 1,600 -776 Descending Houston Center
Sat 12:27:41 PM 29.9311 -93.9842 282° West 132 152 500 -1,082 Descending Houston Center
Sat 12:29:00 PM 29.9500 -94.0167 235° Southwest  Level FlightAware Approximate
Sat 12:36:00 PM 29.9508 -94.0207 235° Southwest  Level Estimated

Login

Don't have an account? Register now (free) for customized features, flight alerts, and more!